sensor_id;sensor_type;location;lat;lon;timestamp;P1;durP1;ratioP1;P2;durP2;ratioP2
5811;SDS011;2932;52.400;9.558;2023-04-25T00:01:39;8.37;;;3.37;;
5811;SDS011;2932;52.400;9.558;2023-04-25T00:04:04;7.20;;;3.30;;
5811;SDS011;2932;52.400;9.558;2023-04-25T00:06:33;6.10;;;3.30;;
5811;SDS011;2932;52.400;9.558;2023-04-25T00:09:01;8.17;;;3.40;;
5811;SDS011;2932;52.400;9.558;2023-04-25T00:11:27;8.47;;;3.53;;
5811;SDS011;2932;52.400;9.558;2023-04-25T00:13:52;8.83;;;3.27;;
5811;SDS011;2932;52.400;9.558;2023-04-25T00:16:17;10.17;;;3.10;;
5811;SDS011;2932;52.400;9.558;2023-04-25T00:18:43;8.20;;;2.80;;
5811;SDS011;2932;52.400;9.558;2023-04-25T00:21:11;9.47;;;4.03;;
5811;SDS011;2932;52.400;9.558;2023-04-25T00:23:36;6.43;;;3.43;;
5811;SDS011;2932;52.400;9.558;2023-04-25T00:26:02;9.67;;;3.50;;
5811;SDS011;2932;52.400;9.558;2023-04-25T00:28:27;13.17;;;4.10;;
5811;SDS011;2932;52.400;9.558;2023-04-25T00:30:53;10.37;;;3.87;;
5811;SDS011;2932;52.400;9.558;2023-04-25T00:33:18;9.20;;;2.90;;
5811;SDS011;2932;52.400;9.558;2023-04-25T00:35:43;7.83;;;3.17;;
5811;SDS011;2932;52.400;9.558;2023-04-25T00:38:08;12.43;;;4.03;;
5811;SDS011;2932;52.400;9.558;2023-04-25T00:40:34;11.00;;;3.60;;
5811;SDS011;2932;52.400;9.558;2023-04-25T00:42:59;9.60;;;3.70;;
5811;SDS011;2932;52.400;9.558;2023-04-25T00:45:27;6.67;;;2.60;;
5811;SDS011;2932;52.400;9.558;2023-04-25T00:47:56;7.07;;;3.13;;
5811;SDS011;2932;52.400;9.558;2023-04-25T00:50:22;9.90;;;3.50;;
5811;SDS011;2932;52.400;9.558;2023-04-25T00:52:48;13.77;;;3.60;;
5811;SDS011;2932;52.400;9.558;2023-04-25T00:55:14;5.73;;;3.53;;
5811;SDS011;2932;52.400;9.558;2023-04-25T00:57:40;11.93;;;3.47;;
5811;SDS011;2932;52.400;9.558;2023-04-25T01:00:07;12.43;;;3.63;;
5811;SDS011;2932;52.400;9.558;2023-04-25T01:02:34;7.47;;;3.80;;
5811;SDS011;2932;52.400;9.558;2023-04-25T01:05:01;12.23;;;3.70;;
5811;SDS011;2932;52.400;9.558;2023-04-25T01:07:27;11.43;;;4.30;;
5811;SDS011;2932;52.400;9.558;2023-04-25T01:09:52;6.13;;;3.60;;
5811;SDS011;2932;52.400;9.558;2023-04-25T01:12:18;6.43;;;3.57;;
5811;SDS011;2932;52.400;9.558;2023-04-25T01:14:43;12.73;;;3.73;;
5811;SDS011;2932;52.400;9.558;2023-04-25T01:17:09;10.37;;;3.50;;
5811;SDS011;2932;52.400;9.558;2023-04-25T01:19:35;10.83;;;4.10;;
5811;SDS011;2932;52.400;9.558;2023-04-25T01:22:01;7.03;;;3.43;;
5811;SDS011;2932;52.400;9.558;2023-04-25T01:24:26;12.80;;;4.50;;
5811;SDS011;2932;52.400;9.558;2023-04-25T01:26:51;8.63;;;3.90;;
5811;SDS011;2932;52.400;9.558;2023-04-25T01:29:18;10.23;;;4.57;;
5811;SDS011;2932;52.400;9.558;2023-04-25T01:31:44;6.53;;;3.70;;
5811;SDS011;2932;52.400;9.558;2023-04-25T01:34:10;8.23;;;4.53;;
5811;SDS011;2932;52.400;9.558;2023-04-25T01:36:36;9.63;;;3.90;;
5811;SDS011;2932;52.400;9.558;2023-04-25T01:39:02;10.50;;;4.63;;
5811;SDS011;2932;52.400;9.558;2023-04-25T01:41:27;8.77;;;3.83;;
5811;SDS011;2932;52.400;9.558;2023-04-25T01:43:53;13.23;;;4.27;;
5811;SDS011;2932;52.400;9.558;2023-04-25T01:46:18;14.37;;;4.70;;
5811;SDS011;2932;52.400;9.558;2023-04-25T01:48:44;10.00;;;4.13;;
5811;SDS011;2932;52.400;9.558;2023-04-25T01:51:09;12.07;;;5.60;;
5811;SDS011;2932;52.400;9.558;2023-04-25T01:53:36;7.90;;;4.20;;
5811;SDS011;2932;52.400;9.558;2023-04-25T01:56:02;8.03;;;3.60;;
5811;SDS011;2932;52.400;9.558;2023-04-25T01:58:28;12.97;;;5.27;;
5811;SDS011;2932;52.400;9.558;2023-04-25T02:00:53;11.07;;;4.50;;
5811;SDS011;2932;52.400;9.558;2023-04-25T02:03:18;9.20;;;3.50;;
5811;SDS011;2932;52.400;9.558;2023-04-25T02:05:44;10.30;;;4.10;;
5811;SDS011;2932;52.400;9.558;2023-04-25T02:08:09;10.57;;;3.30;;
5811;SDS011;2932;52.400;9.558;2023-04-25T02:10:35;12.37;;;3.33;;
5811;SDS011;2932;52.400;9.558;2023-04-25T02:13:01;6.87;;;2.87;;
5811;SDS011;2932;52.400;9.558;2023-04-25T02:15:26;8.23;;;3.00;;
5811;SDS011;2932;52.400;9.558;2023-04-25T02:17:51;10.27;;;3.30;;
5811;SDS011;2932;52.400;9.558;2023-04-25T02:20:18;8.93;;;3.57;;
5811;SDS011;2932;52.400;9.558;2023-04-25T02:22:45;9.07;;;3.50;;
5811;SDS011;2932;52.400;9.558;2023-04-25T02:25:10;8.97;;;3.33;;
5811;SDS011;2932;52.400;9.558;2023-04-25T02:27:36;12.97;;;3.53;;
5811;SDS011;2932;52.400;9.558;2023-04-25T02:30:01;10.77;;;3.23;;
5811;SDS011;2932;52.400;9.558;2023-04-25T02:32:27;12.40;;;3.47;;
5811;SDS011;2932;52.400;9.558;2023-04-25T02:34:53;11.20;;;2.73;;
5811;SDS011;2932;52.400;9.558;2023-04-25T02:37:18;12.37;;;4.33;;
5811;SDS011;2932;52.400;9.558;2023-04-25T02:39:44;10.43;;;2.83;;
5811;SDS011;2932;52.400;9.558;2023-04-25T02:42:10;12.33;;;3.00;;
5811;SDS011;2932;52.400;9.558;2023-04-25T02:44:35;10.60;;;2.80;;
5811;SDS011;2932;52.400;9.558;2023-04-25T02:47:01;8.50;;;3.23;;
5811;SDS011;2932;52.400;9.558;2023-04-25T02:49:26;8.00;;;2.80;;
5811;SDS011;2932;52.400;9.558;2023-04-25T02:51:51;7.03;;;2.57;;
5811;SDS011;2932;52.400;9.558;2023-04-25T02:54:17;11.57;;;2.60;;
5811;SDS011;2932;52.400;9.558;2023-04-25T02:56:42;11.13;;;3.17;;
5811;SDS011;2932;52.400;9.558;2023-04-25T02:59:07;10.67;;;2.80;;
5811;SDS011;2932;52.400;9.558;2023-04-25T03:01:33;11.90;;;2.77;;
5811;SDS011;2932;52.400;9.558;2023-04-25T03:03:58;12.70;;;3.30;;
5811;SDS011;2932;52.400;9.558;2023-04-25T03:06:23;14.43;;;3.10;;
5811;SDS011;2932;52.400;9.558;2023-04-25T03:08:49;12.07;;;2.90;;
5811;SDS011;2932;52.400;9.558;2023-04-25T03:11:14;12.33;;;2.73;;
5811;SDS011;2932;52.400;9.558;2023-04-25T03:13:39;9.37;;;2.47;;
5811;SDS011;2932;52.400;9.558;2023-04-25T03:16:05;9.57;;;3.27;;
5811;SDS011;2932;52.400;9.558;2023-04-25T03:18:30;15.73;;;3.00;;
5811;SDS011;2932;52.400;9.558;2023-04-25T03:20:56;14.97;;;3.17;;
5811;SDS011;2932;52.400;9.558;2023-04-25T03:23:21;8.63;;;3.07;;
5811;SDS011;2932;52.400;9.558;2023-04-25T03:25:46;12.57;;;2.70;;
5811;SDS011;2932;52.400;9.558;2023-04-25T03:28:13;12.10;;;3.17;;
5811;SDS011;2932;52.400;9.558;2023-04-25T03:33:06;16.63;;;3.50;;
5811;SDS011;2932;52.400;9.558;2023-04-25T03:35:31;14.00;;;3.50;;
5811;SDS011;2932;52.400;9.558;2023-04-25T03:37:58;8.40;;;2.30;;
5811;SDS011;2932;52.400;9.558;2023-04-25T03:40:23;13.70;;;3.67;;
5811;SDS011;2932;52.400;9.558;2023-04-25T03:42:49;14.70;;;2.93;;
5811;SDS011;2932;52.400;9.558;2023-04-25T03:45:14;10.13;;;2.90;;
5811;SDS011;2932;52.400;9.558;2023-04-25T03:47:39;10.40;;;2.83;;
5811;SDS011;2932;52.400;9.558;2023-04-25T03:50:05;10.00;;;2.80;;
5811;SDS011;2932;52.400;9.558;2023-04-25T03:52:31;17.13;;;3.40;;
5811;SDS011;2932;52.400;9.558;2023-04-25T03:54:56;17.47;;;3.03;;
5811;SDS011;2932;52.400;9.558;2023-04-25T03:57:21;15.07;;;3.17;;
5811;SDS011;2932;52.400;9.558;2023-04-25T03:59:47;15.87;;;3.47;;
5811;SDS011;2932;52.400;9.558;2023-04-25T04:02:12;12.27;;;3.20;;
5811;SDS011;2932;52.400;9.558;2023-04-25T04:04:37;15.93;;;3.30;;
5811;SDS011;2932;52.400;9.558;2023-04-25T04:07:03;12.60;;;3.23;;
5811;SDS011;2932;52.400;9.558;2023-04-25T04:09:28;13.23;;;3.00;;
5811;SDS011;2932;52.400;9.558;2023-04-25T04:11:53;10.43;;;2.53;;
5811;SDS011;2932;52.400;9.558;2023-04-25T04:14:19;20.67;;;2.90;;
5811;SDS011;2932;52.400;9.558;2023-04-25T04:16:44;12.13;;;3.47;;
5811;SDS011;2932;52.400;9.558;2023-04-25T04:19:10;15.03;;;3.23;;
5811;SDS011;2932;52.400;9.558;2023-04-25T04:21:35;15.83;;;2.57;;
5811;SDS011;2932;52.400;9.558;2023-04-25T04:24:00;20.00;;;3.70;;
5811;SDS011;2932;52.400;9.558;2023-04-25T04:26:26;12.33;;;2.60;;
5811;SDS011;2932;52.400;9.558;2023-04-25T04:28:51;12.90;;;2.57;;
5811;SDS011;2932;52.400;9.558;2023-04-25T04:31:19;14.23;;;2.60;;
5811;SDS011;2932;52.400;9.558;2023-04-25T04:33:45;15.07;;;3.37;;
5811;SDS011;2932;52.400;9.558;2023-04-25T04:36:11;14.53;;;3.17;;
5811;SDS011;2932;52.400;9.558;2023-04-25T04:38:36;13.00;;;3.07;;
5811;SDS011;2932;52.400;9.558;2023-04-25T04:41:02;16.70;;;2.83;;
5811;SDS011;2932;52.400;9.558;2023-04-25T04:43:28;12.33;;;2.57;;
5811;SDS011;2932;52.400;9.558;2023-04-25T04:45:54;21.47;;;3.10;;
5811;SDS011;2932;52.400;9.558;2023-04-25T04:48:21;16.27;;;2.90;;
5811;SDS011;2932;52.400;9.558;2023-04-25T04:50:47;9.80;;;2.53;;
5811;SDS011;2932;52.400;9.558;2023-04-25T04:53:13;11.73;;;2.70;;
5811;SDS011;2932;52.400;9.558;2023-04-25T04:55:38;13.90;;;2.57;;
5811;SDS011;2932;52.400;9.558;2023-04-25T04:58:06;14.80;;;3.63;;
5811;SDS011;2932;52.400;9.558;2023-04-25T05:00:31;15.40;;;2.90;;
5811;SDS011;2932;52.400;9.558;2023-04-25T05:02:58;19.23;;;3.03;;
5811;SDS011;2932;52.400;9.558;2023-04-25T05:05:23;17.20;;;3.20;;
5811;SDS011;2932;52.400;9.558;2023-04-25T05:07:48;13.73;;;3.20;;
5811;SDS011;2932;52.400;9.558;2023-04-25T05:10:14;15.47;;;3.63;;
5811;SDS011;2932;52.400;9.558;2023-04-25T05:12:40;10.97;;;2.70;;
5811;SDS011;2932;52.400;9.558;2023-04-25T05:15:05;8.60;;;2.93;;
5811;SDS011;2932;52.400;9.558;2023-04-25T05:17:31;12.67;;;3.00;;
5811;SDS011;2932;52.400;9.558;2023-04-25T05:19:57;20.60;;;2.63;;
5811;SDS011;2932;52.400;9.558;2023-04-25T05:22:23;10.73;;;2.33;;
5811;SDS011;2932;52.400;9.558;2023-04-25T05:24:48;13.23;;;2.53;;
5811;SDS011;2932;52.400;9.558;2023-04-25T05:27:16;14.70;;;2.53;;
5811;SDS011;2932;52.400;9.558;2023-04-25T05:29:41;11.70;;;2.43;;
5811;SDS011;2932;52.400;9.558;2023-04-25T05:32:07;12.67;;;2.37;;
5811;SDS011;2932;52.400;9.558;2023-04-25T05:34:33;14.60;;;2.80;;
5811;SDS011;2932;52.400;9.558;2023-04-25T05:36:58;11.00;;;3.47;;
5811;SDS011;2932;52.400;9.558;2023-04-25T05:39:24;18.23;;;2.50;;
5811;SDS011;2932;52.400;9.558;2023-04-25T05:41:49;15.30;;;2.87;;
5811;SDS011;2932;52.400;9.558;2023-04-25T05:44:14;11.70;;;2.50;;
5811;SDS011;2932;52.400;9.558;2023-04-25T05:46:40;17.00;;;2.93;;
5811;SDS011;2932;52.400;9.558;2023-04-25T05:49:06;10.43;;;2.47;;
5811;SDS011;2932;52.400;9.558;2023-04-25T05:51:31;12.17;;;3.03;;
5811;SDS011;2932;52.400;9.558;2023-04-25T05:53:57;10.70;;;2.37;;
5811;SDS011;2932;52.400;9.558;2023-04-25T05:56:22;7.63;;;2.63;;
5811;SDS011;2932;52.400;9.558;2023-04-25T05:58:48;15.40;;;2.60;;
5811;SDS011;2932;52.400;9.558;2023-04-25T06:01:13;18.03;;;2.80;;
5811;SDS011;2932;52.400;9.558;2023-04-25T06:03:39;13.33;;;2.93;;
5811;SDS011;2932;52.400;9.558;2023-04-25T06:06:07;11.67;;;2.90;;
5811;SDS011;2932;52.400;9.558;2023-04-25T06:08:33;16.97;;;2.77;;
5811;SDS011;2932;52.400;9.558;2023-04-25T06:10:58;13.50;;;2.70;;
5811;SDS011;2932;52.400;9.558;2023-04-25T06:13:23;12.27;;;2.40;;
5811;SDS011;2932;52.400;9.558;2023-04-25T06:15:49;10.03;;;2.53;;
5811;SDS011;2932;52.400;9.558;2023-04-25T06:18:14;13.37;;;2.80;;
5811;SDS011;2932;52.400;9.558;2023-04-25T06:20:40;11.83;;;2.60;;
5811;SDS011;2932;52.400;9.558;2023-04-25T06:23:05;12.67;;;2.30;;
5811;SDS011;2932;52.400;9.558;2023-04-25T06:25:30;15.97;;;3.07;;
5811;SDS011;2932;52.400;9.558;2023-04-25T06:27:56;11.97;;;2.60;;
5811;SDS011;2932;52.400;9.558;2023-04-25T06:30:21;13.50;;;2.80;;
5811;SDS011;2932;52.400;9.558;2023-04-25T06:32:50;9.13;;;2.30;;
5811;SDS011;2932;52.400;9.558;2023-04-25T06:35:15;9.97;;;2.53;;
5811;SDS011;2932;52.400;9.558;2023-04-25T06:37:41;11.50;;;2.57;;
5811;SDS011;2932;52.400;9.558;2023-04-25T06:40:06;10.80;;;2.60;;
5811;SDS011;2932;52.400;9.558;2023-04-25T06:42:32;12.03;;;2.17;;
5811;SDS011;2932;52.400;9.558;2023-04-25T06:44:58;12.90;;;2.20;;
5811;SDS011;2932;52.400;9.558;2023-04-25T06:47:23;16.77;;;2.80;;
5811;SDS011;2932;52.400;9.558;2023-04-25T06:49:49;11.40;;;2.37;;
5811;SDS011;2932;52.400;9.558;2023-04-25T06:52:14;15.20;;;2.47;;
5811;SDS011;2932;52.400;9.558;2023-04-25T06:54:40;12.90;;;3.07;;
5811;SDS011;2932;52.400;9.558;2023-04-25T06:57:05;10.07;;;2.67;;
5811;SDS011;2932;52.400;9.558;2023-04-25T06:59:31;10.87;;;2.43;;
5811;SDS011;2932;52.400;9.558;2023-04-25T07:01:57;12.20;;;3.20;;
5811;SDS011;2932;52.400;9.558;2023-04-25T07:04:23;10.83;;;2.30;;
5811;SDS011;2932;52.400;9.558;2023-04-25T07:06:48;17.97;;;2.87;;
5811;SDS011;2932;52.400;9.558;2023-04-25T07:09:14;12.83;;;2.30;;
5811;SDS011;2932;52.400;9.558;2023-04-25T07:11:39;10.37;;;2.03;;
5811;SDS011;2932;52.400;9.558;2023-04-25T07:14:05;10.10;;;2.07;;
5811;SDS011;2932;52.400;9.558;2023-04-25T07:16:30;9.30;;;2.17;;
5811;SDS011;2932;52.400;9.558;2023-04-25T07:18:56;6.57;;;1.90;;
5811;SDS011;2932;52.400;9.558;2023-04-25T07:21:21;7.83;;;1.57;;
5811;SDS011;2932;52.400;9.558;2023-04-25T07:23:46;10.87;;;2.43;;
5811;SDS011;2932;52.400;9.558;2023-04-25T07:26:12;11.20;;;2.00;;
5811;SDS011;2932;52.400;9.558;2023-04-25T07:28:38;12.97;;;2.60;;
5811;SDS011;2932;52.400;9.558;2023-04-25T07:31:03;6.30;;;1.90;;
5811;SDS011;2932;52.400;9.558;2023-04-25T07:33:28;8.77;;;1.77;;
5811;SDS011;2932;52.400;9.558;2023-04-25T07:35:54;12.00;;;2.00;;
5811;SDS011;2932;52.400;9.558;2023-04-25T07:38:20;14.77;;;2.07;;
5811;SDS011;2932;52.400;9.558;2023-04-25T07:40:47;9.60;;;2.30;;
5811;SDS011;2932;52.400;9.558;2023-04-25T07:43:14;9.43;;;2.17;;
5811;SDS011;2932;52.400;9.558;2023-04-25T07:45:41;8.00;;;1.60;;
5811;SDS011;2932;52.400;9.558;2023-04-25T07:48:07;19.57;;;2.67;;
5811;SDS011;2932;52.400;9.558;2023-04-25T07:50:33;9.43;;;2.43;;
5811;SDS011;2932;52.400;9.558;2023-04-25T07:52:58;6.47;;;1.40;;
5811;SDS011;2932;52.400;9.558;2023-04-25T07:55:23;7.73;;;2.00;;
5811;SDS011;2932;52.400;9.558;2023-04-25T07:57:49;7.47;;;1.77;;
5811;SDS011;2932;52.400;9.558;2023-04-25T08:00:14;9.80;;;2.10;;
5811;SDS011;2932;52.400;9.558;2023-04-25T08:02:40;10.93;;;2.00;;
5811;SDS011;2932;52.400;9.558;2023-04-25T08:05:05;13.17;;;2.90;;
5811;SDS011;2932;52.400;9.558;2023-04-25T08:07:33;9.30;;;1.93;;
5811;SDS011;2932;52.400;9.558;2023-04-25T08:09:58;12.67;;;2.63;;
5811;SDS011;2932;52.400;9.558;2023-04-25T08:12:24;15.77;;;2.97;;
5811;SDS011;2932;52.400;9.558;2023-04-25T08:14:49;6.70;;;1.90;;
5811;SDS011;2932;52.400;9.558;2023-04-25T08:17:15;7.53;;;1.73;;
5811;SDS011;2932;52.400;9.558;2023-04-25T08:19:41;10.20;;;2.03;;
5811;SDS011;2932;52.400;9.558;2023-04-25T08:22:06;6.27;;;1.30;;
5811;SDS011;2932;52.400;9.558;2023-04-25T08:24:31;8.30;;;2.13;;
5811;SDS011;2932;52.400;9.558;2023-04-25T08:26:57;5.90;;;1.57;;
5811;SDS011;2932;52.400;9.558;2023-04-25T08:29:23;8.57;;;1.40;;
5811;SDS011;2932;52.400;9.558;2023-04-25T08:31:50;7.53;;;1.63;;
5811;SDS011;2932;52.400;9.558;2023-04-25T08:34:17;6.50;;;1.67;;
5811;SDS011;2932;52.400;9.558;2023-04-25T08:36:43;6.60;;;1.70;;
5811;SDS011;2932;52.400;9.558;2023-04-25T08:39:08;6.13;;;1.60;;
5811;SDS011;2932;52.400;9.558;2023-04-25T08:41:34;7.53;;;1.47;;
5811;SDS011;2932;52.400;9.558;2023-04-25T08:44:01;8.20;;;1.60;;
5811;SDS011;2932;52.400;9.558;2023-04-25T08:46:29;5.07;;;1.50;;
5811;SDS011;2932;52.400;9.558;2023-04-25T08:48:57;3.83;;;1.40;;
5811;SDS011;2932;52.400;9.558;2023-04-25T08:51:26;9.20;;;2.00;;
5811;SDS011;2932;52.400;9.558;2023-04-25T08:53:55;9.57;;;2.00;;
5811;SDS011;2932;52.400;9.558;2023-04-25T08:56:24;10.83;;;1.60;;
5811;SDS011;2932;52.400;9.558;2023-04-25T08:58:50;4.00;;;1.33;;
5811;SDS011;2932;52.400;9.558;2023-04-25T09:01:16;7.80;;;1.30;;
5811;SDS011;2932;52.400;9.558;2023-04-25T09:03:43;2.73;;;1.23;;
5811;SDS011;2932;52.400;9.558;2023-04-25T09:06:10;4.80;;;1.30;;
5811;SDS011;2932;52.400;9.558;2023-04-25T09:08:36;6.60;;;1.17;;
5811;SDS011;2932;52.400;9.558;2023-04-25T09:11:02;7.00;;;1.50;;
5811;SDS011;2932;52.400;9.558;2023-04-25T09:13:28;4.97;;;1.33;;
5811;SDS011;2932;52.400;9.558;2023-04-25T09:15:56;4.80;;;1.30;;
5811;SDS011;2932;52.400;9.558;2023-04-25T09:20:50;7.90;;;1.27;;
5811;SDS011;2932;52.400;9.558;2023-04-25T09:23:17;3.83;;;1.00;;
5811;SDS011;2932;52.400;9.558;2023-04-25T09:25:47;2.43;;;1.10;;
5811;SDS011;2932;52.400;9.558;2023-04-25T09:28:13;5.70;;;1.17;;
5811;SDS011;2932;52.400;9.558;2023-04-25T09:30:39;5.83;;;1.50;;
5811;SDS011;2932;52.400;9.558;2023-04-25T09:33:05;6.30;;;1.50;;
5811;SDS011;2932;52.400;9.558;2023-04-25T09:35:35;3.50;;;0.93;;
5811;SDS011;2932;52.400;9.558;2023-04-25T09:38:14;2.40;;;1.47;;
5811;SDS011;2932;52.400;9.558;2023-04-25T09:40:43;2.10;;;0.87;;
5811;SDS011;2932;52.400;9.558;2023-04-25T09:43:10;3.70;;;1.10;;
5811;SDS011;2932;52.400;9.558;2023-04-25T09:45:47;3.83;;;1.00;;
5811;SDS011;2932;52.400;9.558;2023-04-25T09:48:19;4.83;;;1.43;;
5811;SDS011;2932;52.400;9.558;2023-04-25T09:53:34;4.90;;;1.30;;
5811;SDS011;2932;52.400;9.558;2023-04-25T09:56:02;4.57;;;1.13;;
5811;SDS011;2932;52.400;9.558;2023-04-25T09:58:30;4.57;;;1.30;;
5811;SDS011;2932;52.400;9.558;2023-04-25T10:01:00;4.07;;;1.37;;
5811;SDS011;2932;52.400;9.558;2023-04-25T10:03:28;3.07;;;1.17;;
5811;SDS011;2932;52.400;9.558;2023-04-25T10:05:55;6.97;;;1.07;;
5811;SDS011;2932;52.400;9.558;2023-04-25T10:08:23;4.03;;;1.00;;
5811;SDS011;2932;52.400;9.558;2023-04-25T10:10:51;2.63;;;1.17;;
5811;SDS011;2932;52.400;9.558;2023-04-25T10:13:17;4.00;;;1.17;;
5811;SDS011;2932;52.400;9.558;2023-04-25T10:15:43;5.00;;;1.13;;
5811;SDS011;2932;52.400;9.558;2023-04-25T10:18:09;7.33;;;1.50;;
5811;SDS011;2932;52.400;9.558;2023-04-25T10:20:35;8.07;;;1.30;;
5811;SDS011;2932;52.400;9.558;2023-04-25T10:23:06;3.17;;;0.83;;
5811;SDS011;2932;52.400;9.558;2023-04-25T10:25:38;6.83;;;1.23;;
5811;SDS011;2932;52.400;9.558;2023-04-25T10:28:05;4.60;;;1.10;;
5811;SDS011;2932;52.400;9.558;2023-04-25T10:30:30;7.20;;;1.77;;
5811;SDS011;2932;52.400;9.558;2023-04-25T10:32:56;6.20;;;1.20;;
5811;SDS011;2932;52.400;9.558;2023-04-25T10:35:26;3.57;;;1.10;;
5811;SDS011;2932;52.400;9.558;2023-04-25T10:38:11;3.47;;;1.23;;
5811;SDS011;2932;52.400;9.558;2023-04-25T10:40:39;3.83;;;1.63;;
5811;SDS011;2932;52.400;9.558;2023-04-25T10:46:01;3.60;;;1.27;;
5811;SDS011;2932;52.400;9.558;2023-04-25T10:48:28;2.80;;;1.07;;
5811;SDS011;2932;52.400;9.558;2023-04-25T10:53:45;3.47;;;1.27;;
5811;SDS011;2932;52.400;9.558;2023-04-25T10:56:18;5.90;;;1.80;;
5811;SDS011;2932;52.400;9.558;2023-04-25T10:58:46;5.33;;;1.70;;
5811;SDS011;2932;52.400;9.558;2023-04-25T11:01:15;2.30;;;1.17;;
5811;SDS011;2932;52.400;9.558;2023-04-25T11:03:45;6.33;;;1.53;;
5811;SDS011;2932;52.400;9.558;2023-04-25T11:09:02;4.37;;;1.20;;
5811;SDS011;2932;52.400;9.558;2023-04-25T11:11:28;4.97;;;1.10;;
5811;SDS011;2932;52.400;9.558;2023-04-25T11:13:54;7.67;;;1.30;;
5811;SDS011;2932;52.400;9.558;2023-04-25T11:16:19;3.73;;;1.20;;
5811;SDS011;2932;52.400;9.558;2023-04-25T11:18:50;3.87;;;1.00;;
5811;SDS011;2932;52.400;9.558;2023-04-25T11:21:15;4.40;;;1.10;;
5811;SDS011;2932;52.400;9.558;2023-04-25T11:23:41;4.77;;;1.10;;
5811;SDS011;2932;52.400;9.558;2023-04-25T11:26:10;4.13;;;1.00;;
5811;SDS011;2932;52.400;9.558;2023-04-25T11:28:36;4.47;;;1.10;;
5811;SDS011;2932;52.400;9.558;2023-04-25T11:31:02;5.97;;;1.03;;
5811;SDS011;2932;52.400;9.558;2023-04-25T11:33:29;4.57;;;1.20;;
5811;SDS011;2932;52.400;9.558;2023-04-25T11:35:55;5.10;;;1.40;;
5811;SDS011;2932;52.400;9.558;2023-04-25T11:38:21;4.00;;;1.10;;
5811;SDS011;2932;52.400;9.558;2023-04-25T11:40:54;6.47;;;1.33;;
5811;SDS011;2932;52.400;9.558;2023-04-25T11:43:20;5.67;;;1.10;;
5811;SDS011;2932;52.400;9.558;2023-04-25T11:45:50;3.53;;;1.10;;
5811;SDS011;2932;52.400;9.558;2023-04-25T11:48:16;2.60;;;1.20;;
5811;SDS011;2932;52.400;9.558;2023-04-25T11:50:42;2.30;;;1.00;;
5811;SDS011;2932;52.400;9.558;2023-04-25T11:53:08;5.53;;;1.30;;
5811;SDS011;2932;52.400;9.558;2023-04-25T11:55:33;3.70;;;0.83;;
5811;SDS011;2932;52.400;9.558;2023-04-25T11:58:00;5.07;;;1.20;;
5811;SDS011;2932;52.400;9.558;2023-04-25T12:00:26;4.20;;;1.23;;
5811;SDS011;2932;52.400;9.558;2023-04-25T12:02:52;2.80;;;0.93;;
5811;SDS011;2932;52.400;9.558;2023-04-25T12:05:19;4.37;;;1.33;;
5811;SDS011;2932;52.400;9.558;2023-04-25T12:07:45;11.27;;;1.20;;
5811;SDS011;2932;52.400;9.558;2023-04-25T12:10:12;3.13;;;0.70;;
5811;SDS011;2932;52.400;9.558;2023-04-25T12:12:41;3.50;;;0.60;;
5811;SDS011;2932;52.400;9.558;2023-04-25T12:15:11;1.33;;;0.67;;
5811;SDS011;2932;52.400;9.558;2023-04-25T12:17:41;3.67;;;0.70;;
5811;SDS011;2932;52.400;9.558;2023-04-25T12:20:10;3.23;;;1.00;;
5811;SDS011;2932;52.400;9.558;2023-04-25T12:22:44;3.43;;;1.00;;
5811;SDS011;2932;52.400;9.558;2023-04-25T12:25:12;4.00;;;1.10;;
5811;SDS011;2932;52.400;9.558;2023-04-25T12:28:19;2.20;;;1.00;;
5811;SDS011;2932;52.400;9.558;2023-04-25T12:33:24;0.53;;;0.40;;
5811;SDS011;2932;52.400;9.558;2023-04-25T12:35:50;0.90;;;0.47;;
5811;SDS011;2932;52.400;9.558;2023-04-25T12:40:51;1.60;;;0.53;;
5811;SDS011;2932;52.400;9.558;2023-04-25T12:43:17;1.73;;;0.60;;
5811;SDS011;2932;52.400;9.558;2023-04-25T12:45:43;1.93;;;0.47;;
5811;SDS011;2932;52.400;9.558;2023-04-25T12:48:08;2.30;;;0.67;;
5811;SDS011;2932;52.400;9.558;2023-04-25T12:50:34;3.07;;;0.63;;
5811;SDS011;2932;52.400;9.558;2023-04-25T12:52:59;2.67;;;0.93;;
5811;SDS011;2932;52.400;9.558;2023-04-25T12:55:24;3.40;;;0.67;;
5811;SDS011;2932;52.400;9.558;2023-04-25T12:57:50;2.07;;;0.73;;
5811;SDS011;2932;52.400;9.558;2023-04-25T13:00:16;3.57;;;1.10;;
5811;SDS011;2932;52.400;9.558;2023-04-25T13:02:44;2.67;;;0.80;;
5811;SDS011;2932;52.400;9.558;2023-04-25T13:05:10;0.90;;;0.70;;
5811;SDS011;2932;52.400;9.558;2023-04-25T13:07:36;2.43;;;1.00;;
5811;SDS011;2932;52.400;9.558;2023-04-25T13:10:01;3.17;;;1.20;;
5811;SDS011;2932;52.400;9.558;2023-04-25T13:12:27;1.50;;;0.90;;
5811;SDS011;2932;52.400;9.558;2023-04-25T13:14:53;2.97;;;0.77;;
5811;SDS011;2932;52.400;9.558;2023-04-25T13:17:18;2.40;;;0.87;;
5811;SDS011;2932;52.400;9.558;2023-04-25T13:19:43;1.87;;;0.90;;
5811;SDS011;2932;52.400;9.558;2023-04-25T13:22:09;3.80;;;0.90;;
5811;SDS011;2932;52.400;9.558;2023-04-25T13:24:34;2.53;;;1.07;;
5811;SDS011;2932;52.400;9.558;2023-04-25T13:26:59;1.87;;;1.00;;
5811;SDS011;2932;52.400;9.558;2023-04-25T13:29:25;4.07;;;0.93;;
5811;SDS011;2932;52.400;9.558;2023-04-25T13:31:50;1.30;;;0.70;;
5811;SDS011;2932;52.400;9.558;2023-04-25T13:34:15;2.70;;;0.90;;
5811;SDS011;2932;52.400;9.558;2023-04-25T13:36:41;5.20;;;1.17;;
5811;SDS011;2932;52.400;9.558;2023-04-25T13:39:06;2.67;;;1.00;;
5811;SDS011;2932;52.400;9.558;2023-04-25T13:41:31;3.10;;;1.13;;
5811;SDS011;2932;52.400;9.558;2023-04-25T13:43:57;5.67;;;1.27;;
5811;SDS011;2932;52.400;9.558;2023-04-25T13:46:22;1.53;;;0.73;;
5811;SDS011;2932;52.400;9.558;2023-04-25T13:48:48;3.40;;;1.10;;
5811;SDS011;2932;52.400;9.558;2023-04-25T13:51:14;3.93;;;1.50;;
5811;SDS011;2932;52.400;9.558;2023-04-25T13:53:40;3.80;;;1.50;;
5811;SDS011;2932;52.400;9.558;2023-04-25T13:56:06;4.50;;;1.10;;
5811;SDS011;2932;52.400;9.558;2023-04-25T13:58:31;2.70;;;1.20;;
5811;SDS011;2932;52.400;9.558;2023-04-25T14:00:57;2.20;;;1.10;;
5811;SDS011;2932;52.400;9.558;2023-04-25T14:03:23;7.67;;;1.50;;
5811;SDS011;2932;52.400;9.558;2023-04-25T14:05:48;5.67;;;1.30;;
5811;SDS011;2932;52.400;9.558;2023-04-25T14:08:14;3.57;;;0.87;;
5811;SDS011;2932;52.400;9.558;2023-04-25T14:10:39;3.63;;;1.00;;
5811;SDS011;2932;52.400;9.558;2023-04-25T14:13:05;2.30;;;0.90;;
5811;SDS011;2932;52.400;9.558;2023-04-25T14:15:32;2.97;;;1.40;;
5811;SDS011;2932;52.400;9.558;2023-04-25T14:17:57;3.80;;;1.97;;
5811;SDS011;2932;52.400;9.558;2023-04-25T14:20:23;3.67;;;1.10;;
5811;SDS011;2932;52.400;9.558;2023-04-25T14:22:48;2.97;;;1.00;;
5811;SDS011;2932;52.400;9.558;2023-04-25T14:25:14;4.87;;;1.03;;
5811;SDS011;2932;52.400;9.558;2023-04-25T14:27:39;1.77;;;0.80;;
5811;SDS011;2932;52.400;9.558;2023-04-25T14:30:05;8.73;;;2.17;;
5811;SDS011;2932;52.400;9.558;2023-04-25T14:32:31;3.43;;;0.90;;
5811;SDS011;2932;52.400;9.558;2023-04-25T14:34:57;1.67;;;0.80;;
5811;SDS011;2932;52.400;9.558;2023-04-25T14:37:22;2.90;;;0.80;;
5811;SDS011;2932;52.400;9.558;2023-04-25T14:39:47;5.10;;;1.00;;
5811;SDS011;2932;52.400;9.558;2023-04-25T14:42:13;3.67;;;1.03;;
5811;SDS011;2932;52.400;9.558;2023-04-25T14:44:38;1.87;;;0.90;;
5811;SDS011;2932;52.400;9.558;2023-04-25T14:47:03;2.80;;;1.07;;
5811;SDS011;2932;52.400;9.558;2023-04-25T14:49:29;2.77;;;0.93;;
5811;SDS011;2932;52.400;9.558;2023-04-25T14:51:54;1.60;;;1.10;;
5811;SDS011;2932;52.400;9.558;2023-04-25T14:54:19;4.83;;;1.30;;
5811;SDS011;2932;52.400;9.558;2023-04-25T14:56:45;2.57;;;1.00;;
5811;SDS011;2932;52.400;9.558;2023-04-25T14:59:10;3.60;;;1.47;;
5811;SDS011;2932;52.400;9.558;2023-04-25T15:01:35;5.03;;;0.97;;
5811;SDS011;2932;52.400;9.558;2023-04-25T15:04:01;3.57;;;0.97;;
5811;SDS011;2932;52.400;9.558;2023-04-25T15:06:28;4.13;;;1.47;;
5811;SDS011;2932;52.400;9.558;2023-04-25T15:08:55;5.80;;;0.97;;
5811;SDS011;2932;52.400;9.558;2023-04-25T15:11:21;2.77;;;1.00;;
5811;SDS011;2932;52.400;9.558;2023-04-25T15:13:47;2.77;;;0.97;;
5811;SDS011;2932;52.400;9.558;2023-04-25T15:16:13;3.73;;;1.30;;
5811;SDS011;2932;52.400;9.558;2023-04-25T15:18:38;2.70;;;0.80;;
5811;SDS011;2932;52.400;9.558;2023-04-25T15:21:04;3.60;;;1.20;;
5811;SDS011;2932;52.400;9.558;2023-04-25T15:23:29;2.30;;;1.00;;
5811;SDS011;2932;52.400;9.558;2023-04-25T15:25:55;6.23;;;1.07;;